Time;durP1;ratioP1;P1;durP2;ratioP2;P2;SDS_P1;SDS_P2;PMS_P1;PMS_P2;Temp;Humidity;BMP_temperature;BMP_pressure;BME280_temperature;BME280_humidity;BME280_pressure;Samples;Min_cycle;Max_cycle;Signal;HPM_P1;HPM_P2
2023/11/10 00:02:20;;;;;;;169.60;72.20;;;3.30;99.90;;;;;;5009475;28;20030;-78
2023/11/10 00:04:49;;;;;;;98.93;44.15;;;3.30;99.90;;;;;;5009663;28;20075;-77
2023/11/10 00:07:17;;;;;;;144.40;55.90;;;3.30;99.90;;;;;;5076996;28;20030;-78
2023/11/10 00:09:46;;;;;;;130.65;54.00;;;3.30;99.90;;;;;;5009502;28;20035;-74
2023/11/10 00:12:14;;;;;;;139.40;50.35;;;3.30;99.90;;;;;;5071140;28;20135;-77
2023/11/10 00:14:39;;;;;;;100.55;41.35;;;3.40;99.90;;;;;;5077223;28;20043;-77
2023/11/10 00:17:09;;;;;;;112.15;46.58;;;3.40;99.90;;;;;;5010393;28;20034;-75
2023/11/10 00:19:47;;;;;;;87.80;33.53;;;3.50;99.90;;;;;;5080761;28;20018;-79
2023/11/10 00:22:12;;;;;;;94.90;38.17;;;3.60;99.90;;;;;;5080350;28;20030;-79
2023/11/10 00:24:45;;;;;;;91.00;38.60;;;3.70;99.90;;;;;;5012795;28;20030;-75
2023/11/10 00:27:13;;;;;;;91.85;36.83;;;3.70;99.90;;;;;;5012567;28;20105;-75
2023/11/10 00:29:45;;;;;;;63.33;24.58;;;3.80;99.90;;;;;;5080856;28;20387;-79
2023/11/10 00:32:12;;;;;;;50.65;23.38;;;3.90;99.90;;;;;;5012290;28;20073;-79
2023/11/10 00:34:38;;;;;;;99.13;37.25;;;4.00;99.90;;;;;;5080752;28;20053;-77
2023/11/10 00:37:04;;;;;;;113.30;51.10;;;4.00;99.90;;;;;;5079778;28;20045;-75
2023/11/10 00:39:30;;;;;;;189.55;89.57;;;4.00;99.90;;;;;;5080652;28;20010;-77
2023/11/10 00:41:59;;;;;;;139.77;65.32;;;4.00;99.90;;;;;;5012080;28;20417;-75
2023/11/10 00:44:27;;;;;;;111.95;49.53;;;4.00;99.90;;;;;;5080432;28;20135;-80
2023/11/10 00:46:53;;;;;;;77.00;40.25;;;3.90;99.90;;;;;;5011962;28;20046;-79
2023/11/10 00:49:18;;;;;;;70.07;32.63;;;3.90;99.90;;;;;;5012324;28;20022;-75
2023/11/10 00:51:44;;;;;;;35.85;18.90;;;3.90;99.90;;;;;;5080226;28;20045;-74
2023/11/10 00:54:10;;;;;;;36.08;19.48;;;3.90;99.90;;;;;;5080306;28;20022;-75
2023/11/10 00:56:36;;;;;;;37.55;16.13;;;4.00;99.90;;;;;;5011811;28;20033;-79
2023/11/10 00:59:02;;;;;;;58.30;31.33;;;4.00;99.90;;;;;;5012176;28;20113;-75
2023/11/10 01:01:28;;;;;;;75.47;37.90;;;4.00;99.90;;;;;;5076575;28;20105;-79
2023/11/10 01:03:54;;;;;;;64.55;32.20;;;4.00;99.90;;;;;;5076495;28;20508;-75
2023/11/10 01:06:22;;;;;;;53.17;28.55;;;4.00;99.90;;;;;;5001289;28;20018;-79
2023/11/10 01:08:48;;;;;;;53.22;28.05;;;3.90;99.90;;;;;;5002897;28;20026;-80
2023/11/10 01:11:14;;;;;;;42.50;23.95;;;3.90;99.90;;;;;;5010632;28;20032;-80
2023/11/10 01:13:39;;;;;;;47.60;25.80;;;3.90;99.90;;;;;;5011832;28;20097;-80
2023/11/10 01:16:05;;;;;;;44.05;22.58;;;3.90;99.90;;;;;;5011652;28;20102;-75
2023/11/10 01:18:34;;;;;;;31.50;16.50;;;3.90;99.90;;;;;;5079884;28;20051;-80
2023/11/10 01:21:01;;;;;;;33.03;15.40;;;4.00;99.90;;;;;;5011492;28;20040;-79
2023/11/10 01:23:26;;;;;;;33.22;19.95;;;4.10;99.90;;;;;;5079795;28;20018;-80
2023/11/10 01:25:52;;;;;;;124.13;52.22;;;4.10;99.90;;;;;;5011229;28;20118;-80
2023/11/10 01:28:18;;;;;;;51.45;24.25;;;4.20;99.90;;;;;;5011425;28;20022;-75
2023/11/10 01:30:45;;;;;;;66.70;32.85;;;4.30;99.90;;;;;;5079408;28;20026;-75
2023/11/10 01:33:11;;;;;;;37.08;20.10;;;4.30;99.90;;;;;;5076378;28;20105;-80
2023/11/10 01:35:36;;;;;;;32.05;15.65;;;4.40;99.90;;;;;;5007159;28;20112;-80
2023/11/10 01:38:02;;;;;;;59.15;29.45;;;4.40;99.90;;;;;;5011648;28;20066;-75
2023/11/10 01:40:31;;;;;;;56.75;27.20;;;4.50;99.90;;;;;;5079322;28;20018;-75
2023/11/10 01:42:57;;;;;;;30.17;11.95;;;4.40;99.90;;;;;;5077124;28;20428;-80
2023/11/10 01:45:22;;;;;;;27.50;14.70;;;4.50;99.90;;;;;;5011359;28;20041;-75
2023/11/10 01:47:48;;;;;;;57.28;27.35;;;4.70;99.90;;;;;;5009408;28;20053;-80
2023/11/10 01:50:14;;;;;;;45.53;23.52;;;4.70;99.90;;;;;;5011431;28;20037;-80
2023/11/10 01:52:43;;;;;;;170.00;74.50;;;4.80;99.90;;;;;;5011108;28;20026;-75
2023/11/10 01:55:12;;;;;;;50.63;28.45;;;4.80;99.90;;;;;;5079054;28;20018;-75
2023/11/10 01:57:38;;;;;;;40.08;20.90;;;4.90;99.90;;;;;;5078528;28;20030;-76
2023/11/10 02:00:04;;;;;;;26.30;13.23;;;5.00;99.90;;;;;;5011410;28;20046;-79
2023/11/10 02:02:31;;;;;;;23.63;11.88;;;5.00;99.90;;;;;;5010854;28;20030;-75
2023/11/10 02:04:57;;;;;;;66.53;31.35;;;5.00;99.90;;;;;;5079177;28;20426;-75
2023/11/10 02:07:23;;;;;;;15.93;9.82;;;4.90;99.90;;;;;;5080491;28;20022;-75
2023/11/10 02:09:49;;;;;;;229.80;90.45;;;4.90;99.90;;;;;;5010926;28;20471;-75
2023/11/10 02:12:15;;;;;;;89.03;40.45;;;4.90;99.90;;;;;;5010986;28;20097;-74
2023/11/10 02:14:41;;;;;;;37.55;18.15;;;4.90;99.90;;;;;;5010875;28;20105;-75
2023/11/10 02:17:06;;;;;;;15.10;8.40;;;4.80;99.90;;;;;;5076623;28;20147;-75
2023/11/10 02:19:33;;;;;;;12.60;7.75;;;4.80;99.90;;;;;;5078693;28;20025;-79
2023/11/10 02:21:59;;;;;;;28.50;13.45;;;4.80;99.90;;;;;;5010630;28;20060;-80
2023/11/10 02:24:26;;;;;;;14.02;8.07;;;4.80;99.90;;;;;;5010939;28;20054;-79
2023/11/10 02:26:52;;;;;;;45.75;18.00;;;4.70;99.90;;;;;;5077728;28;20025;-78
2023/11/10 02:29:18;;;;;;;36.85;17.13;;;4.70;99.90;;;;;;5011000;28;20039;-80
2023/11/10 02:31:44;;;;;;;35.40;21.35;;;4.60;99.90;;;;;;5010536;28;20380;-75
2023/11/10 02:34:09;;;;;;;48.85;24.85;;;4.50;99.90;;;;;;5078483;28;20026;-75
2023/11/10 02:36:35;;;;;;;44.70;22.73;;;4.40;99.90;;;;;;5010259;28;20125;-75
2023/11/10 02:39:04;;;;;;;127.78;73.80;;;4.40;99.90;;;;;;5077741;28;20490;-75
2023/11/10 02:41:29;;;;;;;33.90;17.90;;;4.30;99.90;;;;;;5077939;28;20048;-80
2023/11/10 02:43:55;;;;;;;73.07;42.05;;;4.20;99.90;;;;;;5010646;28;20057;-75
2023/11/10 02:46:21;;;;;;;24.98;13.98;;;4.20;99.90;;;;;;5077748;28;20042;-80
2023/11/10 02:48:46;;;;;;;22.48;11.38;;;4.20;99.90;;;;;;5078145;28;20033;-75
2023/11/10 02:51:13;;;;;;;16.60;10.80;;;4.20;99.90;;;;;;5029975;28;20027;-75
2023/11/10 02:53:39;;;;;;;16.88;10.40;;;4.20;99.90;;;;;;5010737;28;20169;-80
2023/11/10 02:56:06;;;;;;;15.77;9.20;;;4.10;99.90;;;;;;5008813;28;20058;-80
2023/11/10 02:58:33;;;;;;;11.07;7.65;;;4.10;99.90;;;;;;5000215;28;20022;-75
2023/11/10 03:00:58;;;;;;;10.98;7.47;;;4.20;99.90;;;;;;5010291;28;20030;-80
2023/11/10 03:03:24;;;;;;;12.32;8.52;;;4.20;99.90;;;;;;5010450;28;20089;-75
2023/11/10 03:05:50;;;;;;;17.98;11.13;;;4.20;99.90;;;;;;5077454;28;20117;-75
2023/11/10 03:08:16;;;;;;;20.92;12.13;;;4.10;99.90;;;;;;5077774;28;20030;-75
2023/11/10 03:10:42;;;;;;;22.25;13.60;;;4.10;99.90;;;;;;5077672;28;20022;-79
2023/11/10 03:13:09;;;;;;;27.25;14.07;;;4.10;99.90;;;;;;5010256;28;20091;-76
2023/11/10 03:15:38;;;;;;;18.13;10.07;;;4.10;99.90;;;;;;5009679;28;20034;-80
2023/11/10 03:18:04;;;;;;;20.15;10.82;;;4.00;99.90;;;;;;5009939;28;20026;-76
2023/11/10 03:20:30;;;;;;;14.23;9.23;;;4.10;99.90;;;;;;5009968;28;20061;-80
2023/11/10 03:22:55;;;;;;;17.90;7.97;;;4.00;99.90;;;;;;5010131;28;20030;-76
2023/11/10 03:25:21;;;;;;;14.50;8.80;;;3.90;99.90;;;;;;5009846;28;20026;-76
2023/11/10 03:27:47;;;;;;;15.48;9.23;;;3.90;99.90;;;;;;5077524;28;20079;-75
2023/11/10 03:30:13;;;;;;;21.00;10.32;;;3.90;99.90;;;;;;5009643;28;20022;-81
2023/11/10 03:32:39;;;;;;;10.55;7.82;;;3.80;99.90;;;;;;5077774;28;20094;-80
2023/11/10 03:35:06;;;;;;;28.98;18.05;;;3.90;99.90;;;;;;5073722;28;20433;-80
2023/11/10 03:37:31;;;;;;;15.90;9.73;;;3.80;99.90;;;;;;5009861;28;20083;-76
2023/11/10 03:39:57;;;;;;;10.13;6.72;;;3.80;99.90;;;;;;5009662;28;20021;-75
2023/11/10 03:42:22;;;;;;;9.63;7.15;;;3.80;99.90;;;;;;5009524;28;20053;-81
2023/11/10 03:44:48;;;;;;;11.05;7.55;;;3.80;99.90;;;;;;5073473;28;20079;-76
2023/11/10 03:47:14;;;;;;;20.58;12.45;;;3.80;99.90;;;;;;5000626;28;20046;-76
2023/11/10 03:49:40;;;;;;;30.23;18.55;;;3.80;99.90;;;;;;5077391;28;20078;-76
2023/11/10 03:52:06;;;;;;;19.33;11.52;;;3.80;99.90;;;;;;5012192;28;20026;-76
2023/11/10 03:54:32;;;;;;;18.92;10.65;;;3.80;99.90;;;;;;5013252;28;20554;-75
2023/11/10 03:56:58;;;;;;;17.02;10.38;;;3.70;99.90;;;;;;5071460;28;20167;-81
2023/11/10 03:59:23;;;;;;;20.30;10.63;;;3.80;99.90;;;;;;5006669;28;20079;-80
2023/11/10 04:01:49;;;;;;;15.90;8.48;;;3.70;99.90;;;;;;5008013;28;20471;-80
2023/11/10 04:04:15;;;;;;;13.07;8.10;;;3.70;99.90;;;;;;5013030;28;20022;-76
2023/11/10 04:06:41;;;;;;;16.50;9.07;;;3.70;99.90;;;;;;5080604;28;20491;-80
2023/11/10 04:09:08;;;;;;;13.00;7.05;;;3.70;99.90;;;;;;5081380;28;20022;-76
2023/11/10 04:11:33;;;;;;;10.60;7.20;;;3.70;99.90;;;;;;5080063;28;20089;-79
2023/11/10 04:13:59;;;;;;;8.98;6.53;;;3.70;99.90;;;;;;5012823;28;20098;-79
2023/11/10 04:16:25;;;;;;;10.00;6.13;;;3.70;99.90;;;;;;5072313;28;20395;-76
2023/11/10 04:18:53;;;;;;;11.05;6.88;;;3.70;99.90;;;;;;5011864;28;20400;-76
2023/11/10 04:21:26;;;;;;;10.88;7.10;;;3.70;99.90;;;;;;5080330;28;20109;-76
2023/11/10 04:23:51;;;;;;;11.35;6.18;;;3.70;99.90;;;;;;5012489;28;20022;-76
2023/11/10 04:26:17;;;;;;;19.73;7.78;;;3.70;99.90;;;;;;5012332;28;20436;-80
2023/11/10 04:28:47;;;;;;;8.95;6.35;;;3.70;99.90;;;;;;5072550;28;20029;-79
2023/11/10 04:31:17;;;;;;;9.65;6.38;;;3.70;99.90;;;;;;5010067;28;20056;-80
2023/11/10 04:33:43;;;;;;;8.45;6.57;;;3.70;99.90;;;;;;5004199;28;20031;-80
2023/11/10 04:36:12;;;;;;;12.23;7.57;;;3.70;99.90;;;;;;5011199;28;20388;-79
2023/11/10 04:38:39;;;;;;;11.88;7.53;;;3.70;99.90;;;;;;5012770;28;20018;-80
2023/11/10 04:41:05;;;;;;;10.88;7.15;;;3.70;99.90;;;;;;5010611;28;20463;-80
2023/11/10 04:43:30;;;;;;;10.50;7.80;;;3.80;99.90;;;;;;5010433;28;20055;-76
2023/11/10 04:45:56;;;;;;;8.80;6.78;;;3.80;99.90;;;;;;5012027;28;20033;-76
2023/11/10 04:48:22;;;;;;;9.23;6.43;;;3.80;99.90;;;;;;5012024;28;20050;-76
2023/11/10 04:50:48;;;;;;;8.95;6.63;;;3.70;99.90;;;;;;5078166;28;20116;-76
2023/11/10 04:53:13;;;;;;;14.32;8.48;;;3.70;99.90;;;;;;5079957;28;20014;-79
2023/11/10 04:55:42;;;;;;;15.43;9.50;;;3.70;99.90;;;;;;5079411;28;20034;-80
2023/11/10 04:58:08;;;;;;;15.40;10.48;;;3.70;99.90;;;;;;5073627;28;20022;-76
2023/11/10 05:00:34;;;;;;;19.13;10.93;;;3.60;99.90;;;;;;5077033;28;20387;-80
2023/11/10 05:03:03;;;;;;;16.80;10.77;;;3.60;99.90;;;;;;5011294;28;20033;-76
2023/11/10 05:05:29;;;;;;;20.17;11.40;;;3.70;99.90;;;;;;5011794;28;20026;-80
2023/11/10 05:07:55;;;;;;;18.80;11.27;;;3.70;99.90;;;;;;5079774;28;20026;-80
2023/11/10 05:10:21;;;;;;;15.80;10.13;;;3.70;99.90;;;;;;5012045;28;20464;-79
2023/11/10 05:12:46;;;;;;;15.50;9.85;;;3.70;99.90;;;;;;5079842;28;20030;-80
2023/11/10 05:15:13;;;;;;;14.75;9.82;;;3.70;99.90;;;;;;5011668;28;20022;-80
2023/11/10 05:17:40;;;;;;;16.30;10.05;;;3.70;99.90;;;;;;5010457;28;20053;-79
2023/11/10 05:20:07;;;;;;;17.65;11.93;;;3.70;99.90;;;;;;5003972;28;20079;-80
2023/11/10 05:22:33;;;;;;;18.25;10.10;;;3.70;99.90;;;;;;4999865;28;20030;-75
2023/11/10 05:25:02;;;;;;;20.05;10.07;;;3.60;99.90;;;;;;5107431;28;20115;-74
2023/11/10 05:27:28;;;;;;;16.88;8.85;;;3.60;99.90;;;;;;5072089;28;20156;-75
2023/11/10 05:29:54;;;;;;;11.63;9.27;;;3.60;99.90;;;;;;5075275;28;20034;-80
2023/11/10 05:32:20;;;;;;;16.25;10.77;;;3.50;99.90;;;;;;5003830;28;20079;-79
2023/11/10 05:34:46;;;;;;;18.17;10.15;;;3.40;99.90;;;;;;5008400;28;20472;-79
2023/11/10 05:37:11;;;;;;;21.35;13.93;;;3.40;99.90;;;;;;5077576;28;20124;-80
2023/11/10 05:39:37;;;;;;;15.30;10.15;;;3.30;99.90;;;;;;5078111;28;20390;-80
2023/11/10 05:42:04;;;;;;;13.40;9.52;;;3.30;99.90;;;;;;5011043;28;20502;-79
2023/11/10 05:44:29;;;;;;;15.82;9.85;;;3.30;99.90;;;;;;5001839;28;20485;-80
2023/11/10 05:46:55;;;;;;;14.10;8.93;;;3.30;99.90;;;;;;5000853;28;20046;-80
2023/11/10 05:49:20;;;;;;;16.08;9.65;;;3.30;99.90;;;;;;5009551;28;20045;-80
2023/11/10 05:51:50;;;;;;;11.98;8.77;;;3.20;99.90;;;;;;5076216;28;20081;-80
2023/11/10 05:54:16;;;;;;;14.15;8.38;;;3.20;99.90;;;;;;5006998;28;20019;-79
2023/11/10 05:56:42;;;;;;;20.05;9.10;;;3.20;99.90;;;;;;5008416;28;20056;-80
2023/11/10 05:59:08;;;;;;;12.82;8.25;;;3.20;99.90;;;;;;5011449;28;20018;-80
2023/11/10 06:01:34;;;;;;;15.18;8.75;;;3.20;99.90;;;;;;5010642;28;20108;-80
2023/11/10 06:04:00;;;;;;;11.15;8.00;;;3.20;99.90;;;;;;5074148;28;20073;-80
2023/11/10 06:06:26;;;;;;;10.07;7.88;;;3.20;99.90;;;;;;5001499;28;20038;-80
2023/11/10 06:08:54;;;;;;;12.20;6.95;;;3.10;99.90;;;;;;5079053;28;20025;-80
2023/11/10 06:11:21;;;;;;;15.50;8.65;;;3.10;99.90;;;;;;5009450;28;20068;-80
2023/11/10 06:13:48;;;;;;;10.85;7.13;;;3.10;99.90;;;;;;5010224;28;20026;-80
2023/11/10 06:16:15;;;;;;;13.10;7.22;;;3.10;99.90;;;;;;5073602;28;20038;-80
2023/11/10 06:18:41;;;;;;;13.85;8.05;;;3.10;99.90;;;;;;5073379;28;20030;-79
2023/11/10 06:21:08;;;;;;;13.18;8.05;;;3.10;99.90;;;;;;5009486;28;20026;-79
2023/11/10 06:23:34;;;;;;;14.10;9.60;;;3.00;99.90;;;;;;5003954;28;20641;-80
2023/11/10 06:26:00;;;;;;;15.45;8.40;;;3.00;99.90;;;;;;5002523;28;20117;-80
2023/11/10 06:28:26;;;;;;;20.48;11.98;;;3.00;99.90;;;;;;5010695;28;20410;-80
2023/11/10 06:30:52;;;;;;;16.13;10.48;;;3.00;99.90;;;;;;5078207;28;20022;-79
2023/11/10 06:33:18;;;;;;;22.92;10.70;;;3.00;99.90;;;;;;5010507;28;20499;-80
2023/11/10 06:35:43;;;;;;;18.80;10.10;;;3.00;99.90;;;;;;5070120;28;20125;-75
2023/11/10 06:38:09;;;;;;;19.50;10.63;;;3.00;99.90;;;;;;5088460;28;20030;-80
2023/11/10 06:40:35;;;;;;;20.60;10.10;;;3.00;99.90;;;;;;5077868;28;20029;-80
2023/11/10 06:43:03;;;;;;;16.85;9.60;;;3.00;99.90;;;;;;5005924;28;20038;-80
2023/11/10 06:45:28;;;;;;;12.48;8.32;;;3.00;99.90;;;;;;5073557;28;20041;-80
2023/11/10 06:47:54;;;;;;;13.10;8.98;;;3.00;99.90;;;;;;4997972;28;20046;-80
2023/11/10 06:50:20;;;;;;;12.52;8.15;;;3.00;99.90;;;;;;5008301;28;20053;-80
2023/11/10 06:52:46;;;;;;;13.90;8.68;;;3.00;99.90;;;;;;5007916;28;20694;-75
2023/11/10 06:55:16;;;;;;;16.73;9.20;;;3.10;99.90;;;;;;5005269;28;20037;-80
2023/11/10 06:57:42;;;;;;;20.02;11.30;;;3.10;99.90;;;;;;5008563;28;20092;-80
2023/11/10 07:00:11;;;;;;;19.48;10.50;;;3.10;99.90;;;;;;5008544;28;20476;-79
2023/11/10 07:02:37;;;;;;;14.32;8.88;;;3.20;99.90;;;;;;5075446;28;20109;-79
2023/11/10 07:05:03;;;;;;;19.80;8.95;;;3.20;99.90;;;;;;5006853;28;20147;-79
2023/11/10 07:07:30;;;;;;;14.63;8.23;;;3.20;99.90;;;;;;5006533;28;20010;-75
2023/11/10 07:09:58;;;;;;;11.18;7.63;;;3.20;99.90;;;;;;5007196;28;20097;-79
2023/11/10 07:12:24;;;;;;;16.33;8.90;;;3.20;99.90;;;;;;5007029;28;20022;-75
2023/11/10 07:14:50;;;;;;;15.68;8.98;;;3.30;99.90;;;;;;5007288;28;20022;-75
2023/11/10 07:17:17;;;;;;;16.13;10.50;;;3.30;99.90;;;;;;5073710;28;20530;-80
2023/11/10 07:19:44;;;;;;;14.30;8.57;;;3.30;99.90;;;;;;5008772;28;20101;-79
2023/11/10 07:22:10;;;;;;;17.33;9.32;;;3.30;99.90;;;;;;5008723;28;20357;-76
2023/11/10 07:24:35;;;;;;;16.25;9.05;;;3.40;99.90;;;;;;5078034;28;20113;-75
2023/11/10 07:27:06;;;;;;;20.92;11.65;;;3.40;99.90;;;;;;5060341;28;20044;-79
2023/11/10 07:29:35;;;;;;;12.18;9.18;;;3.50;99.90;;;;;;5010098;28;20028;-80
2023/11/10 07:32:02;;;;;;;19.42;11.15;;;3.50;99.90;;;;;;5009637;28;20030;-75
2023/11/10 07:34:28;;;;;;;22.77;14.35;;;3.50;99.90;;;;;;5010017;28;20022;-80
2023/11/10 07:36:54;;;;;;;33.50;15.45;;;3.60;99.90;;;;;;5009683;28;20470;-75
2023/11/10 07:39:21;;;;;;;18.35;13.73;;;3.70;99.90;;;;;;5077602;28;20034;-75
2023/11/10 07:41:47;;;;;;;33.05;16.65;;;3.80;99.90;;;;;;5077516;28;20030;-80
2023/11/10 07:44:13;;;;;;;30.42;16.55;;;4.00;99.90;;;;;;5010172;28;20082;-79
2023/11/10 07:46:39;;;;;;;27.05;15.57;;;4.20;99.90;;;;;;5009485;28;20045;-80
2023/11/10 07:49:05;;;;;;;28.92;15.45;;;4.40;99.90;;;;;;5077814;28;20026;-80
2023/11/10 07:51:31;;;;;;;29.75;16.55;;;4.60;99.90;;;;;;5009663;28;20034;-76
2023/11/10 07:53:57;;;;;;;22.85;12.55;;;4.80;99.90;;;;;;5009986;28;20025;-79
2023/11/10 07:56:23;;;;;;;21.98;11.93;;;5.00;99.90;;;;;;5009458;28;20026;-76
2023/11/10 07:58:49;;;;;;;22.10;12.05;;;5.20;99.90;;;;;;5009839;28;20026;-80
2023/11/10 08:01:14;;;;;;;28.38;13.50;;;5.30;99.90;;;;;;5009466;28;20018;-75
2023/11/10 08:03:42;;;;;;;20.83;10.75;;;5.50;99.90;;;;;;5077091;28;20026;-75
2023/11/10 08:06:09;;;;;;;17.83;11.05;;;5.60;99.90;;;;;;5077252;28;20032;-80
2023/11/10 08:08:36;;;;;;;22.77;11.55;;;5.80;99.90;;;;;;5077134;28;20025;-76
2023/11/10 08:11:02;;;;;;;17.17;10.50;;;6.00;99.90;;;;;;5077081;28;20042;-76
2023/11/10 08:13:27;;;;;;;13.45;9.05;;;6.20;99.90;;;;;;5008752;28;20033;-75
2023/11/10 08:15:53;;;;;;;13.45;8.45;;;6.40;99.90;;;;;;4999140;28;20042;-75
2023/11/10 08:18:21;;;;;;;23.63;12.35;;;6.70;99.90;;;;;;5069967;28;20018;-80
2023/11/10 08:20:47;;;;;;;16.35;10.75;;;6.90;99.90;;;;;;5005964;28;20049;-81
2023/11/10 08:23:14;;;;;;;15.80;9.73;;;7.10;99.90;;;;;;5001688;28;20101;-80
2023/11/10 08:25:41;;;;;;;11.75;8.50;;;7.40;99.90;;;;;;5076443;28;20025;-80
2023/11/10 08:28:08;;;;;;;9.55;7.30;;;7.60;99.90;;;;;;5002009;28;20555;-81
2023/11/10 08:30:34;;;;;;;12.60;7.95;;;7.80;99.90;;;;;;5002612;28;20022;-81
2023/11/10 08:33:00;;;;;;;14.25;9.07;;;8.00;99.90;;;;;;5002771;28;20078;-80
2023/11/10 08:35:26;;;;;;;14.20;9.35;;;8.20;99.90;;;;;;4993393;28;20134;-80
2023/11/10 08:37:52;;;;;;;11.95;7.80;;;8.40;99.90;;;;;;5003179;28;20109;-80
2023/11/10 08:40:17;;;;;;;12.68;6.72;;;8.50;99.90;;;;;;5079535;28;20581;-80
2023/11/10 08:42:46;;;;;;;12.50;6.93;;;8.70;99.90;;;;;;5001677;28;20403;-80
2023/11/10 08:45:11;;;;;;;13.85;6.93;;;8.90;99.90;;;;;;5001486;28;20108;-81
2023/11/10 08:47:40;;;;;;;15.15;7.75;;;9.00;99.90;;;;;;5011856;28;20125;-80
2023/11/10 08:50:11;;;;;;;13.48;7.88;;;9.10;99.90;;;;;;5012200;28;20018;-80
2023/11/10 08:52:40;;;;;;;10.02;6.10;;;9.20;99.90;;;;;;5070571;28;20026;-76
2023/11/10 08:55:20;;;;;;;9.25;5.70;;;9.40;99.90;;;;;;5068634;28;20029;-76
2023/11/10 08:57:47;;;;;;;7.47;6.00;;;9.50;99.90;;;;;;4996940;28;20527;-81
2023/11/10 09:00:17;;;;;;;9.32;5.30;;;9.50;99.90;;;;;;5012175;28;20022;-80
2023/11/10 09:02:44;;;;;;;8.95;5.20;;;9.60;99.90;;;;;;5011622;28;20031;-80
2023/11/10 09:05:10;;;;;;;7.43;5.80;;;9.70;99.90;;;;;;5077256;28;20112;-80
2023/11/10 09:07:41;;;;;;;8.82;4.88;;;9.70;99.90;;;;;;5009821;28;20386;-80
2023/11/10 09:10:10;;;;;;;10.57;5.45;;;9.80;99.90;;;;;;5079828;28;20479;-80
2023/11/10 09:12:36;;;;;;;7.38;4.38;;;9.90;99.90;;;;;;5079741;28;20033;-80
2023/11/10 09:15:04;;;;;;;6.93;4.50;;;9.90;99.90;;;;;;5077716;28;20038;-80
2023/11/10 09:17:31;;;;;;;6.40;4.97;;;9.90;99.90;;;;;;5009465;28;20026;-80
2023/11/10 09:19:57;;;;;;;6.82;4.70;;;9.90;99.90;;;;;;5075524;28;20030;-75
2023/11/10 09:22:23;;;;;;;5.18;4.22;;;9.90;99.90;;;;;;5009741;28;20044;-75
2023/11/10 09:24:48;;;;;;;8.50;4.85;;;9.90;99.90;;;;;;5078742;28;20018;-75
2023/11/10 09:27:14;;;;;;;10.52;4.90;;;10.00;99.90;;;;;;5008756;28;20471;-75
2023/11/10 09:29:40;;;;;;;7.60;4.40;;;10.00;99.90;;;;;;4999438;28;20038;-81
2023/11/10 09:32:10;;;;;;;5.78;4.32;;;10.10;99.90;;;;;;4996581;28;20042;-76
2023/11/10 09:34:37;;;;;;;8.13;4.97;;;10.20;99.90;;;;;;5004861;28;20036;-75
2023/11/10 09:37:04;;;;;;;9.23;4.57;;;10.20;99.90;;;;;;5078927;28;20059;-81
2023/11/10 09:39:29;;;;;;;10.27;5.35;;;10.30;99.90;;;;;;5006350;28;20018;-81
2023/11/10 09:42:02;;;;;;;7.30;4.80;;;10.40;99.90;;;;;;5002061;28;20055;-75
2023/11/10 09:44:28;;;;;;;;;;;10.40;99.90;;;;;;5071984;28;20038;-75
2023/11/10 09:46:55;;;;;;;9.13;4.70;;;10.50;97.10;;;;;;5007297;28;19917;-75
2023/11/10 09:49:21;;;;;;;14.60;6.50;;;10.50;96.60;;;;;;5006044;28;20062;-75
2023/11/10 09:51:48;;;;;;;9.35;5.35;;;10.60;97.70;;;;;;5078329;28;20060;-75
2023/11/10 09:54:14;;;;;;;8.45;5.00;;;10.60;97.70;;;;;;5079688;28;20030;-75
2023/11/10 09:56:41;;;;;;;11.02;6.07;;;10.70;96.20;;;;;;5038285;28;20034;-76
2023/11/10 09:59:07;;;;;;;10.10;7.13;;;10.70;95.50;;;;;;5072054;28;20022;-76
2023/11/10 10:01:33;;;;;;;8.18;4.78;;;10.80;95.40;;;;;;5074523;28;20015;-75
2023/11/10 10:03:59;;;;;;;8.35;5.28;;;10.80;92.50;;;;;;5072125;28;20076;-76
2023/11/10 10:06:25;;;;;;;11.07;5.15;;;10.80;91.20;;;;;;5077903;28;20054;-75
2023/11/10 10:08:55;;;;;;;7.25;4.35;;;10.80;91.50;;;;;;5078725;28;20113;-76
2023/11/10 10:11:22;;;;;;;6.63;4.85;;;10.80;88.70;;;;;;5075524;28;20030;-76
2023/11/10 10:13:47;;;;;;;5.97;4.50;;;10.80;89.30;;;;;;5006768;28;20053;-76
2023/11/10 10:16:13;;;;;;;8.10;5.00;;;10.90;89.50;;;;;;5010755;28;20038;-76
2023/11/10 10:18:44;;;;;;;13.38;6.50;;;10.90;89.50;;;;;;5010586;28;20022;-81
2023/11/10 10:21:11;;;;;;;6.68;4.50;;;10.90;90.50;;;;;;5078576;28;20026;-76
2023/11/10 10:23:37;;;;;;;10.13;5.85;;;11.00;89.20;;;;;;5010468;28;20045;-76
2023/11/10 10:26:09;;;;;;;15.43;8.82;;;10.90;90.30;;;;;;5073126;28;20431;-76
2023/11/10 10:28:35;;;;;;;68.97;27.05;;;11.00;91.40;;;;;;5077362;28;20022;-76
2023/11/10 10:31:02;;;;;;;22.50;11.77;;;11.00;90.60;;;;;;5006703;28;20032;-75
2023/11/10 10:33:28;;;;;;;12.80;7.45;;;11.00;88.60;;;;;;5078363;28;20489;-76
2023/11/10 10:35:54;;;;;;;9.73;4.47;;;10.90;88.40;;;;;;5070706;28;20041;-75
2023/11/10 10:38:22;;;;;;;7.20;4.10;;;11.00;89.80;;;;;;5003629;28;20030;-76
2023/11/10 10:40:55;;;;;;;4.18;3.60;;;11.00;89.50;;;;;;5071722;28;20038;-76
2023/11/10 10:43:21;;;;;;;9.30;4.30;;;11.00;88.40;;;;;;5005880;28;20521;-76
2023/11/10 10:45:47;;;;;;;9.35;4.63;;;11.00;90.20;;;;;;5074382;28;20037;-76
2023/11/10 10:48:15;;;;;;;21.33;7.53;;;11.00;89.90;;;;;;5077268;28;20052;-76
2023/11/10 10:50:43;;;;;;;9.55;4.93;;;11.00;89.10;;;;;;5069735;28;20056;-76
2023/11/10 10:53:10;;;;;;;5.95;4.30;;;11.00;89.90;;;;;;5002890;28;20387;-76
2023/11/10 10:55:39;;;;;;;9.48;5.65;;;11.00;90.20;;;;;;4997258;28;20030;-76
2023/11/10 10:58:06;;;;;;;11.85;6.22;;;11.00;90.10;;;;;;5066523;28;20023;-75
2023/11/10 11:00:32;;;;;;;13.52;6.60;;;11.00;90.30;;;;;;5007549;28;20053;-76
2023/11/10 11:03:24;;;;;;;21.13;7.07;;;11.00;89.70;;;;;;5000648;28;20069;-76
2023/11/10 11:06:27;;;;;;;15.20;7.00;;;11.00;89.60;;;;;;5062034;28;20095;-75
2023/11/10 11:09:10;;;;;;;12.70;6.68;;;11.00;90.20;;;;;;5070461;28;20026;-75
2023/11/10 11:11:43;;;;;;;;;;;11.00;89.30;;;;;;5002216;28;20018;-76
2023/11/10 11:14:10;;;;;;;;;;;10.90;88.30;;;;;;5003762;28;20020;-76
2023/11/10 11:17:08;;;;;;;8.27;5.20;;;10.90;88.50;;;;;;5003808;28;20391;-76
2023/11/10 11:19:36;;;;;;;11.23;5.43;;;10.90;88.50;;;;;;5061416;28;20493;-76
2023/11/10 11:22:02;;;;;;;8.30;5.35;;;10.90;88.50;;;;;;5073177;28;20029;-76
2023/11/10 11:24:32;;;;;;;10.73;6.32;;;10.90;88.10;;;;;;5075123;28;20022;-76
2023/11/10 11:26:59;;;;;;;8.02;5.30;;;11.00;88.90;;;;;;5077136;28;20112;-77
2023/11/10 11:29:25;;;;;;;8.93;6.05;;;11.00;89.40;;;;;;5076214;28;20033;-76
2023/11/10 11:31:51;;;;;;;10.98;6.80;;;11.00;89.80;;;;;;5075183;28;20030;-76
2023/11/10 11:34:21;;;;;;;14.85;7.95;;;11.00;89.40;;;;;;5073939;28;20018;-76
2023/11/10 11:36:48;;;;;;;27.92;15.05;;;11.00;89.30;;;;;;5008565;28;20034;-76
2023/11/10 11:39:19;;;;;;;15.18;9.75;;;11.00;88.10;;;;;;5057126;28;20026;-76
2023/11/10 11:41:49;;;;;;;7.68;6.72;;;11.00;88.50;;;;;;5075932;28;20056;-76
2023/11/10 11:44:34;;;;;;;15.02;5.85;;;11.00;87.80;;;;;;5079307;28;20093;-76
2023/11/10 11:47:11;;;;;;;16.58;6.80;;;11.00;90.00;;;;;;5004176;28;20518;-76
2023/11/10 11:49:40;;;;;;;9.93;5.40;;;10.90;89.60;;;;;;5008529;28;20022;-76
2023/11/10 11:52:07;;;;;;;8.77;4.82;;;10.90;87.30;;;;;;5078829;28;20018;-76
2023/11/10 11:54:33;;;;;;;10.23;4.95;;;10.90;88.30;;;;;;5068641;28;20080;-76
2023/11/10 11:56:59;;;;;;;7.95;4.15;;;10.90;88.40;;;;;;5073129;28;20030;-76
2023/11/10 11:59:25;;;;;;;8.18;4.32;;;10.80;86.20;;;;;;5076744;28;20041;-76
2023/11/10 12:01:52;;;;;;;6.03;3.92;;;10.80;85.60;;;;;;5074503;28;20092;-76
2023/11/10 12:04:17;;;;;;;7.10;4.65;;;10.80;84.20;;;;;;5008266;28;20026;-76
2023/11/10 12:06:44;;;;;;;11.40;4.55;;;10.80;83.20;;;;;;4999965;28;20041;-76
2023/11/10 12:09:10;;;;;;;5.90;3.83;;;10.80;83.90;;;;;;5064921;28;20022;-76
2023/11/10 12:11:36;;;;;;;7.22;4.22;;;10.80;84.90;;;;;;5074247;28;20014;-76
2023/11/10 12:14:05;;;;;;;11.75;4.70;;;10.90;87.10;;;;;;5011823;28;20033;-77
2023/11/10 12:16:41;;;;;;;7.32;4.45;;;10.90;87.20;;;;;;5074716;28;20035;-76
2023/11/10 12:19:09;;;;;;;6.78;4.50;;;10.90;86.70;;;;;;5077625;28;20403;-76
2023/11/10 12:21:35;;;;;;;8.70;4.53;;;10.90;85.50;;;;;;5009250;28;20027;-76
2023/11/10 12:24:06;;;;;;;8.60;4.25;;;10.90;86.00;;;;;;5079146;28;20395;-76
2023/11/10 12:26:39;;;;;;;7.78;4.93;;;10.90;86.00;;;;;;5006561;28;20030;-76
2023/11/10 12:29:15;;;;;;;5.57;4.63;;;11.00;86.30;;;;;;5066346;28;20041;-76
2023/11/10 12:31:42;;;;;;;5.10;3.90;;;10.90;83.60;;;;;;5006307;28;20117;-76
2023/11/10 12:34:08;;;;;;;7.40;4.10;;;10.90;84.20;;;;;;5078871;28;20026;-76
2023/11/10 12:36:35;;;;;;;5.93;4.15;;;10.90;84.50;;;;;;5011547;28;20546;-76
2023/11/10 12:39:02;;;;;;;4.80;3.72;;;10.90;86.10;;;;;;5080115;28;20490;-76
2023/11/10 12:41:29;;;;;;;4.22;3.83;;;10.80;87.40;;;;;;5078389;28;20119;-76
2023/11/10 12:43:55;;;;;;;5.75;4.18;;;10.80;90.50;;;;;;5082705;28;20026;-76